Time;durP1;ratioP1;P1;durP2;ratioP2;P2;SDS_P1;SDS_P2;PMS_P1;PMS_P2;Temp;Humidity;BMP_temperature;BMP_pressure;BME280_temperature;BME280_humidity;BME280_pressure;Samples;Min_cycle;Max_cycle;Signal;HPM_P1;HPM_P2
2022/10/21 00:02:08;;;;;;;5.93;2.72;;;;;;;;;;6332665;22;20049;-49
2022/10/21 00:04:35;;;;;;;6.07;2.92;;;;;;;;;;6332040;22;20097;-46
2022/10/21 00:07:09;;;;;;;4.82;2.88;;;;;;;;;;6306593;22;20022;-48
2022/10/21 00:09:36;;;;;;;6.03;2.70;;;;;;;;;;6331319;22;20022;-46
2022/10/21 00:12:03;;;;;;;3.67;2.70;;;;;;;;;;6333262;22;20026;-46
2022/10/21 00:14:37;;;;;;;5.95;2.92;;;;;;;;;;6332315;22;20102;-47
2022/10/21 00:17:10;;;;;;;4.63;2.50;;;;;;;;;;6331967;22;20110;-48
2022/10/21 00:19:51;;;;;;;4.13;2.45;;;;;;;;;;6332840;22;20022;-59
2022/10/21 00:22:19;;;;;;;6.85;2.40;;;;;;;;;;6332316;22;20033;-60
2022/10/21 00:24:53;;;;;;;4.85;2.40;;;;;;;;;;6331899;22;20018;-60
2022/10/21 00:27:20;;;;;;;5.78;2.72;;;;;;;;;;6332784;22;20047;-59
2022/10/21 00:29:47;;;;;;;5.47;2.90;;;;;;;;;;6332113;22;20195;-60
2022/10/21 00:32:21;;;;;;;3.55;2.53;;;;;;;;;;6332265;22;20033;-60
2022/10/21 00:34:48;;;;;;;6.40;3.10;;;;;;;;;;6331437;22;20021;-46
2022/10/21 00:37:22;;;;;;;4.40;2.83;;;;;;;;;;6332067;22;20027;-60
2022/10/21 00:39:50;;;;;;;4.18;2.70;;;;;;;;;;6329401;22;20305;-60
2022/10/21 00:42:19;;;;;;;5.80;2.90;;;;;;;;;;6331671;22;20045;-60
2022/10/21 00:45:05;;;;;;;4.75;2.65;;;;;;;;;;6332617;22;20033;-60
2022/10/21 00:47:44;;;;;;;6.57;2.58;;;;;;;;;;6331129;22;20022;-60
2022/10/21 00:50:22;;;;;;;7.03;3.17;;;;;;;;;;6331567;22;20019;-60
2022/10/21 00:52:49;;;;;;;7.60;2.88;;;;;;;;;;6332210;22;20336;-60
2022/10/21 00:55:16;;;;;;;4.35;2.80;;;;;;;;;;6329142;22;20345;-61
2022/10/21 00:57:51;;;;;;;5.90;2.90;;;;;;;;;;6332098;22;20022;-59
2022/10/21 01:00:34;;;;;;;7.25;2.90;;;;;;;;;;6331514;22;20105;-60
2022/10/21 01:03:08;;;;;;;3.95;2.72;;;;;;;;;;6332435;22;20023;-60
2022/10/21 01:05:36;;;;;;;7.78;3.15;;;;;;;;;;6332785;22;20025;-60
2022/10/21 01:08:04;;;;;;;7.60;2.75;;;;;;;;;;6332086;22;20023;-60
2022/10/21 01:10:38;;;;;;;3.97;2.60;;;;;;;;;;6331408;22;20402;-60
2022/10/21 01:13:05;;;;;;;;;;;;;;;;;;6305021;22;20093;-46
2022/10/21 01:15:51;;;;;;;3.67;2.55;;;;;;;;;;6332070;22;19918;-49
2022/10/21 01:18:31;;;;;;;9.23;2.70;;;;;;;;;;6330774;22;20352;-60
2022/10/21 01:21:14;;;;;;;6.57;2.90;;;;;;;;;;6331888;22;20018;-59
2022/10/21 01:23:42;;;;;;;7.53;3.35;;;;;;;;;;6332045;22;20014;-59
2022/10/21 01:26:19;;;;;;;4.05;3.10;;;;;;;;;;6333112;22;20303;-59
2022/10/21 01:28:55;;;;;;;5.18;3.03;;;;;;;;;;6331270;22;20021;-59
2022/10/21 01:31:32;;;;;;;5.18;2.55;;;;;;;;;;6331204;22;20029;-58
2022/10/21 01:34:07;;;;;;;5.20;3.05;;;;;;;;;;6331697;22;20079;-59
2022/10/21 01:36:46;;;;;;;3.60;2.58;;;;;;;;;;6330011;22;20069;-49
2022/10/21 01:39:36;;;;;;;6.95;2.80;;;;;;;;;;6330283;22;20029;-49
2022/10/21 01:42:03;;;;;;;6.93;3.17;;;;;;;;;;6330365;22;20076;-50
2022/10/21 01:44:42;;;;;;;6.07;2.90;;;;;;;;;;6331224;22;20030;-47
2022/10/21 01:47:17;;;;;;;6.15;2.58;;;;;;;;;;6330217;22;20106;-50
2022/10/21 01:50:09;;;;;;;7.82;2.80;;;;;;;;;;6331514;22;20326;-47
2022/10/21 01:52:37;;;;;;;4.85;2.90;;;;;;;;;;6331345;22;20468;-59
2022/10/21 01:55:14;;;;;;;8.20;3.00;;;;;;;;;;6331137;22;20094;-59
2022/10/21 01:57:43;;;;;;;6.10;2.78;;;;;;;;;;6331647;22;20364;-59
2022/10/21 02:00:17;;;;;;;5.72;2.55;;;;;;;;;;6330687;22;20370;-59
2022/10/21 02:02:46;;;;;;;4.25;2.70;;;;;;;;;;6304303;22;20018;-60
2022/10/21 02:05:22;;;;;;;6.88;2.53;;;;;;;;;;6327835;22;20321;-60
2022/10/21 02:07:49;;;;;;;5.47;2.70;;;;;;;;;;6330040;22;20486;-58
2022/10/21 02:10:17;;;;;;;7.25;2.67;;;;;;;;;;6327789;22;20097;-59
2022/10/21 02:12:54;;;;;;;3.72;2.60;;;;;;;;;;6331587;22;20023;-59
2022/10/21 02:15:23;;;;;;;8.02;2.35;;;;;;;;;;6331166;22;20023;-59
2022/10/21 02:17:53;;;;;;;5.65;2.17;;;;;;;;;;6330785;22;20095;-59
2022/10/21 02:20:36;;;;;;;3.92;2.30;;;;;;;;;;6330513;22;20360;-59
2022/10/21 02:23:04;;;;;;;5.05;2.20;;;;;;;;;;6329984;22;20018;-59
2022/10/21 02:25:40;;;;;;;4.25;2.35;;;;;;;;;;6332961;22;20019;-59
2022/10/21 02:28:07;;;;;;;2.90;2.08;;;;;;;;;;6331392;22;20176;-59
2022/10/21 02:30:38;;;;;;;3.97;2.13;;;;;;;;;;6331705;22;20102;-60
2022/10/21 02:33:23;;;;;;;3.42;2.25;;;;;;;;;;6332642;22;20022;-60
2022/10/21 02:36:21;;;;;;;3.95;2.40;;;;;;;;;;6333151;22;20041;-60
2022/10/21 02:39:03;;;;;;;8.05;2.10;;;;;;;;;;6333147;22;20023;-60
2022/10/21 02:41:37;;;;;;;4.22;2.30;;;;;;;;;;6333002;22;20113;-60
2022/10/21 02:44:05;;;;;;;5.03;2.00;;;;;;;;;;6331531;22;20097;-60
2022/10/21 02:46:42;;;;;;;3.00;2.30;;;;;;;;;;6332195;22;20098;-60
2022/10/21 02:49:10;;;;;;;9.27;2.47;;;;;;;;;;6333144;22;20029;-60
2022/10/21 02:51:44;;;;;;;4.05;2.10;;;;;;;;;;6334009;22;20025;-60
2022/10/21 02:54:12;;;;;;;3.67;2.00;;;;;;;;;;6328441;22;20044;-61
2022/10/21 02:56:39;;;;;;;;;;;;;;;;;;6333473;22;20034;-61
2022/10/21 02:59:13;;;;;;;2.55;2.03;;;;;;;;;;6333018;22;19924;-60
2022/10/21 03:01:40;;;;;;;6.00;2.28;;;;;;;;;;6330415;22;20023;-61
2022/10/21 03:04:14;;;;;;;5.45;2.47;;;;;;;;;;6330302;22;20493;-61
2022/10/21 03:06:41;;;;;;;3.13;1.75;;;;;;;;;;6333439;22;20033;-61
2022/10/21 03:09:08;;;;;;;2.67;1.42;;;;;;;;;;6332270;22;20717;-59
2022/10/21 03:11:42;;;;;;;2.67;1.90;;;;;;;;;;6334419;22;20033;-59
2022/10/21 03:14:09;;;;;;;4.05;2.58;;;;;;;;;;6332591;22;20073;-59
2022/10/21 03:16:43;;;;;;;4.20;2.55;;;;;;;;;;6333857;22;20025;-59
2022/10/21 03:19:16;;;;;;;3.85;1.98;;;;;;;;;;6332411;22;20046;-59
2022/10/21 03:22:05;;;;;;;3.55;2.38;;;;;;;;;;6331501;22;20423;-59
2022/10/21 03:24:33;;;;;;;8.93;2.10;;;;;;;;;;6332673;22;20018;-59
2022/10/21 03:27:07;;;;;;;4.60;2.63;;;;;;;;;;6333713;22;20456;-60
2022/10/21 03:29:34;;;;;;;5.40;2.50;;;;;;;;;;6332352;22;20015;-59
2022/10/21 03:32:08;;;;;;;6.85;2.40;;;;;;;;;;6333650;22;20029;-59
2022/10/21 03:34:35;;;;;;;6.18;2.65;;;;;;;;;;6330762;22;20340;-59
2022/10/21 03:37:02;;;;;;;3.95;2.00;;;;;;;;;;6332375;22;20026;-60
2022/10/21 03:39:36;;;;;;;3.20;2.10;;;;;;;;;;6332998;22;20472;-60
2022/10/21 03:42:03;;;;;;;4.28;2.05;;;;;;;;;;6333466;22;20019;-59
2022/10/21 03:44:30;;;;;;;3.65;2.03;;;;;;;;;;6330301;22;20073;-59
2022/10/21 03:47:04;;;;;;;3.72;2.13;;;;;;;;;;6332986;22;20094;-59
2022/10/21 03:49:31;;;;;;;6.72;2.38;;;;;;;;;;6332853;22;20033;-50
2022/10/21 03:52:05;;;;;;;3.13;2.15;;;;;;;;;;6331976;22;20023;-47
2022/10/21 03:54:32;;;;;;;4.45;2.55;;;;;;;;;;6331074;22;20022;-46
2022/10/21 03:56:59;;;;;;;3.60;2.30;;;;;;;;;;6332990;22;20495;-47
2022/10/21 03:59:33;;;;;;;3.60;2.20;;;;;;;;;;6330544;22;20137;-48
2022/10/21 04:02:00;;;;;;;5.60;2.28;;;;;;;;;;6332887;22;20019;-46
2022/10/21 04:04:34;;;;;;;5.70;2.28;;;;;;;;;;6332579;22;20019;-60
2022/10/21 04:07:01;;;;;;;4.70;2.35;;;;;;;;;;6333092;22;20410;-59
2022/10/21 04:09:33;;;;;;;4.82;2.45;;;;;;;;;;6332863;22;20098;-48
2022/10/21 04:12:08;;;;;;;4.15;2.13;;;;;;;;;;6333202;22;20464;-46
2022/10/21 04:14:35;;;;;;;4.05;2.13;;;;;;;;;;6332907;22;20464;-49
2022/10/21 04:17:22;;;;;;;3.03;1.95;;;;;;;;;;6330791;22;20051;-48
2022/10/21 04:19:56;;;;;;;5.47;2.53;;;;;;;;;;6331130;22;20023;-52
2022/10/21 04:22:31;;;;;;;4.15;2.53;;;;;;;;;;6329833;22;20553;-47
2022/10/21 04:24:58;;;;;;;4.50;2.22;;;;;;;;;;6332321;22;20419;-59
2022/10/21 04:27:29;;;;;;;4.93;2.40;;;;;;;;;;6332011;22;20027;-60
2022/10/21 04:30:04;;;;;;;4.28;2.60;;;;;;;;;;6329697;22;20021;-60
2022/10/21 04:32:31;;;;;;;4.18;2.33;;;;;;;;;;6332632;22;20535;-60
2022/10/21 04:34:58;;;;;;;3.30;2.28;;;;;;;;;;6331020;22;20015;-61
2022/10/21 04:37:32;;;;;;;3.63;2.22;;;;;;;;;;6331064;22;20023;-60
2022/10/21 04:39:59;;;;;;;6.65;2.30;;;;;;;;;;6332955;22;20019;-60
2022/10/21 04:42:33;;;;;;;4.72;2.67;;;;;;;;;;6332017;22;20018;-60
2022/10/21 04:45:06;;;;;;;8.70;2.40;;;;;;;;;;6332014;22;20022;-59
2022/10/21 04:47:47;;;;;;;3.90;2.50;;;;;;;;;;6332812;22;20033;-59
2022/10/21 04:50:15;;;;;;;5.78;2.40;;;;;;;;;;6331437;22;20050;-59
2022/10/21 04:52:49;;;;;;;4.07;2.28;;;;;;;;;;6328827;22;20028;-59
2022/10/21 04:55:23;;;;;;;3.75;2.38;;;;;;;;;;6331754;22;20452;-59
2022/10/21 04:58:17;;;;;;;5.93;2.60;;;;;;;;;;6331424;22;20465;-60
2022/10/21 05:00:51;;;;;;;4.75;2.50;;;;;;;;;;6331643;22;20363;-59
2022/10/21 05:03:19;;;;;;;6.07;2.78;;;;;;;;;;6332830;22;20053;-61
2022/10/21 05:05:53;;;;;;;6.65;3.13;;;;;;;;;;6331859;22;20070;-59
2022/10/21 05:08:20;;;;;;;6.47;2.80;;;;;;;;;;6332436;22;20097;-59
2022/10/21 05:10:58;;;;;;;3.15;2.30;;;;;;;;;;6332653;22;20065;-59
2022/10/21 05:13:26;;;;;;;5.28;2.53;;;;;;;;;;6330998;22;20031;-59
2022/10/21 05:15:56;;;;;;;4.07;2.60;;;;;;;;;;6332904;22;20015;-59
2022/10/21 05:18:38;;;;;;;5.75;2.25;;;;;;;;;;6332098;22;20105;-60
2022/10/21 05:21:05;;;;;;;6.82;2.33;;;;;;;;;;6332819;22;20030;-60
2022/10/21 05:23:39;;;;;;;6.07;2.65;;;;;;;;;;6332222;22;20417;-59
2022/10/21 05:26:06;;;;;;;4.22;2.50;;;;;;;;;;6333413;22;20014;-60
2022/10/21 05:28:33;;;;;;;3.80;2.70;;;;;;;;;;6330468;22;20694;-59
2022/10/21 05:31:07;;;;;;;8.50;3.08;;;;;;;;;;6332700;22;20021;-60
2022/10/21 05:33:34;;;;;;;5.32;2.50;;;;;;;;;;6333645;22;20027;-59
2022/10/21 05:36:08;;;;;;;4.18;2.38;;;;;;;;;;6331388;22;20023;-60
2022/10/21 05:38:35;;;;;;;7.88;2.92;;;;;;;;;;6332847;22;20025;-60
2022/10/21 05:41:02;;;;;;;6.55;2.70;;;;;;;;;;6333563;22;20041;-48
2022/10/21 05:43:37;;;;;;;5.88;3.15;;;;;;;;;;6332810;22;20041;-59
2022/10/21 05:46:06;;;;;;;5.90;2.55;;;;;;;;;;6330963;22;20019;-60
2022/10/21 05:48:40;;;;;;;3.97;2.63;;;;;;;;;;6332996;22;20018;-60
2022/10/21 05:51:07;;;;;;;7.90;3.40;;;;;;;;;;6332334;22;20019;-60
2022/10/21 05:53:34;;;;;;;8.25;2.90;;;;;;;;;;6332780;22;20027;-60
2022/10/21 05:56:08;;;;;;;3.65;2.38;;;;;;;;;;6333342;22;20014;-59
2022/10/21 05:58:35;;;;;;;7.70;2.92;;;;;;;;;;6330943;22;20487;-60
2022/10/21 06:01:09;;;;;;;4.20;2.75;;;;;;;;;;6332159;22;20028;-60
2022/10/21 06:03:36;;;;;;;7.07;2.50;;;;;;;;;;6333407;22;20022;-46
2022/10/21 06:06:04;;;;;;;4.07;2.85;;;;;;;;;;6331944;22;20022;-48
2022/10/21 06:08:38;;;;;;;5.10;3.00;;;;;;;;;;6332538;22;20023;-49
2022/10/21 06:11:13;;;;;;;4.90;2.97;;;;;;;;;;6333629;22;20018;-53
2022/10/21 06:13:47;;;;;;;4.50;2.80;;;;;;;;;;6330562;22;20531;-49
2022/10/21 06:16:14;;;;;;;;;;;;;;;;;;6332334;22;20015;-52
2022/10/21 06:18:47;;;;;;;4.70;2.92;;;;;;;;;;6329873;22;20009;-60
2022/10/21 06:21:31;;;;;;;5.25;2.92;;;;;;;;;;6331427;22;20029;-60
2022/10/21 06:23:59;;;;;;;;;;;;;;;;;;6332051;22;20456;-59
2022/10/21 06:26:33;;;;;;;5.38;3.00;;;;;;;;;;6331532;22;19937;-60
2022/10/21 06:29:03;;;;;;;5.25;3.22;;;;;;;;;;6330936;22;20030;-60
2022/10/21 06:31:30;;;;;;;9.48;3.40;;;;;;;;;;6331745;22;20479;-59
2022/10/21 06:34:04;;;;;;;6.45;3.00;;;;;;;;;;6332687;22;20019;-60
2022/10/21 06:36:31;;;;;;;5.40;3.15;;;;;;;;;;6332105;22;20019;-60
2022/10/21 06:38:58;;;;;;;8.00;3.42;;;;;;;;;;6332844;22;20037;-60
2022/10/21 06:41:32;;;;;;;5.85;3.17;;;;;;;;;;6332385;22;20045;-60
2022/10/21 06:43:59;;;;;;;6.35;3.45;;;;;;;;;;6331956;22;20018;-60
2022/10/21 06:46:26;;;;;;;8.68;3.03;;;;;;;;;;6332113;22;20019;-60
2022/10/21 06:49:00;;;;;;;9.98;3.50;;;;;;;;;;6330947;22;20097;-59
2022/10/21 06:51:28;;;;;;;5.28;3.15;;;;;;;;;;6331444;22;20064;-59
2022/10/21 06:54:02;;;;;;;4.13;2.70;;;;;;;;;;6331438;22;20486;-59
2022/10/21 06:56:34;;;;;;;7.63;3.42;;;;;;;;;;6332201;22;20026;-60
2022/10/21 06:59:09;;;;;;;8.52;3.05;;;;;;;;;;6331823;22;20476;-60
2022/10/21 07:01:36;;;;;;;;;;;;;;;;;;6330240;22;20095;-59
2022/10/21 07:04:23;;;;;;;5.43;2.78;;;;;;;;;;6308141;22;19921;-59
2022/10/21 07:07:00;;;;;;;5.32;3.20;;;;;;;;;;6330145;22;20025;-59
2022/10/21 07:09:33;;;;;;;3.50;2.55;;;;;;;;;;6333123;22;20094;-59
2022/10/21 07:12:07;;;;;;;6.80;2.55;;;;;;;;;;6333827;22;20019;-59
2022/10/21 07:14:34;;;;;;;4.53;2.72;;;;;;;;;;6334482;22;20023;-61
2022/10/21 07:17:01;;;;;;;7.70;3.13;;;;;;;;;;6333717;22;20089;-60
2022/10/21 07:19:47;;;;;;;5.90;3.10;;;;;;;;;;6332179;22;20019;-47
2022/10/21 07:22:16;;;;;;;9.80;3.42;;;;;;;;;;6333474;22;20102;-49
2022/10/21 07:24:50;;;;;;;3.92;2.70;;;;;;;;;;6307744;22;20068;-51
2022/10/21 07:27:17;;;;;;;8.35;2.95;;;;;;;;;;6334264;22;20030;-49
2022/10/21 07:29:44;;;;;;;7.28;3.10;;;;;;;;;;6334167;22;20102;-46
2022/10/21 07:32:18;;;;;;;7.88;3.42;;;;;;;;;;6333565;22;20018;-48
2022/10/21 07:34:45;;;;;;;5.75;2.88;;;;;;;;;;6332903;22;20463;-60
2022/10/21 07:37:19;;;;;;;5.43;2.75;;;;;;;;;;6333573;22;20043;-59
2022/10/21 07:39:46;;;;;;;4.93;3.38;;;;;;;;;;6333844;22;20097;-59
2022/10/21 07:42:13;;;;;;;6.18;2.92;;;;;;;;;;6334125;22;20048;-60
2022/10/21 07:44:48;;;;;;;7.97;2.90;;;;;;;;;;6332996;22;20028;-60
2022/10/21 07:47:16;;;;;;;10.43;3.42;;;;;;;;;;6333725;22;20406;-59
2022/10/21 07:49:58;;;;;;;5.75;3.40;;;;;;;;;;6333012;22;20022;-59
2022/10/21 07:52:44;;;;;;;5.28;2.88;;;;;;;;;;6333869;22;20105;-59
2022/10/21 07:55:33;;;;;;;5.20;3.10;;;;;;;;;;6332572;22;20029;-60
2022/10/21 07:58:00;;;;;;;5.95;3.22;;;;;;;;;;6334532;22;20018;-49
2022/10/21 08:00:34;;;;;;;7.50;3.15;;;;;;;;;;6332912;22;20061;-46
2022/10/21 08:03:01;;;;;;;9.32;3.47;;;;;;;;;;6333391;22;20025;-47
2022/10/21 08:05:28;;;;;;;6.72;3.30;;;;;;;;;;6333116;22;20019;-47
2022/10/21 08:08:02;;;;;;;7.93;3.63;;;;;;;;;;6333630;22;20015;-47
2022/10/21 08:10:29;;;;;;;9.70;3.53;;;;;;;;;;6331732;22;20023;-46
2022/10/21 08:12:56;;;;;;;6.82;3.45;;;;;;;;;;6333846;22;20341;-60
2022/10/21 08:15:30;;;;;;;7.47;3.85;;;;;;;;;;6333064;22;20026;-49
2022/10/21 08:17:57;;;;;;;7.55;3.22;;;;;;;;;;6332259;22;20560;-47
2022/10/21 08:20:38;;;;;;;13.07;4.18;;;;;;;;;;6334016;22;20397;-46
2022/10/21 08:23:06;;;;;;;5.97;3.33;;;;;;;;;;6330989;22;20086;-46
2022/10/21 08:25:45;;;;;;;10.60;3.85;;;;;;;;;;6332324;22;20027;-46
2022/10/21 08:28:21;;;;;;;15.23;4.50;;;;;;;;;;6330733;22;20025;-47
2022/10/21 08:30:48;;;;;;;8.50;3.60;;;;;;;;;;6331945;22;20125;-61
2022/10/21 08:33:15;;;;;;;10.20;4.05;;;;;;;;;;6332172;22;20094;-60
2022/10/21 08:35:49;;;;;;;8.30;4.35;;;;;;;;;;6333062;22;20023;-61
2022/10/21 08:38:16;;;;;;;8.50;4.00;;;;;;;;;;6334050;22;20106;-61
2022/10/21 08:40:47;;;;;;;12.90;4.47;;;;;;;;;;6333662;22;20102;-61
2022/10/21 08:43:21;;;;;;;;;;;;;;;;;;6331856;22;20065;-61
2022/10/21 08:45:49;;;;;;;9.65;3.95;;;;;;;;;;6331173;22;20411;-61
2022/10/21 08:48:25;;;;;;;10.82;4.88;;;;;;;;;;6331692;22;20019;-61
2022/10/21 08:50:55;;;;;;;9.52;4.05;;;;;;;;;;6332287;22;20019;-60
2022/10/21 08:53:25;;;;;;;7.75;4.13;;;;;;;;;;6332989;22;20097;-60
2022/10/21 08:56:04;;;;;;;10.60;4.80;;;;;;;;;;6332103;22;20015;-60
2022/10/21 08:58:32;;;;;;;11.07;5.13;;;;;;;;;;6332248;22;20049;-60
2022/10/21 09:01:12;;;;;;;9.00;4.95;;;;;;;;;;6331978;22;20532;-59
2022/10/21 09:04:00;;;;;;;14.30;5.18;;;;;;;;;;6331335;22;20022;-60
2022/10/21 09:06:39;;;;;;;13.23;5.80;;;;;;;;;;6333177;22;20093;-60
2022/10/21 09:09:13;;;;;;;10.48;5.68;;;;;;;;;;6332009;22;20468;-53
2022/10/21 09:12:12;;;;;;;9.70;5.20;;;;;;;;;;6331408;22;20029;-49
2022/10/21 09:14:45;;;;;;;12.48;5.50;;;;;;;;;;6331693;22;20355;-47
2022/10/21 09:17:40;;;;;;;8.43;4.90;;;;;;;;;;6332284;22;20086;-50
2022/10/21 09:20:27;;;;;;;11.15;6.18;;;;;;;;;;6331015;22;20033;-49
2022/10/21 09:23:43;;;;;;;10.00;5.43;;;;;;;;;;6332036;22;20510;-46
2022/10/21 09:26:24;;;;;;;14.70;6.75;;;;;;;;;;6235465;23;20038;-49
2022/10/21 09:29:15;;;;;;;13.63;6.57;;;;;;;;;;6333291;22;20019;-49
2022/10/21 09:31:49;;;;;;;13.95;6.68;;;;;;;;;;6332511;22;20030;-60
2022/10/21 09:34:34;;;;;;;16.83;6.25;;;;;;;;;;6332772;22;20023;-60
2022/10/21 09:37:12;;;;;;;18.13;5.95;;;;;;;;;;6332783;22;20192;-60
2022/10/21 09:39:48;;;;;;;16.50;6.45;;;;;;;;;;6330250;22;20023;-60
2022/10/21 09:42:22;;;;;;;16.45;6.75;;;;;;;;;;6332067;22;20018;-59
2022/10/21 09:45:21;;;;;;;14.38;6.13;;;;;;;;;;6332382;22;20029;-59
2022/10/21 09:47:53;;;;;;;12.70;6.57;;;;;;;;;;6331246;22;20093;-59
2022/10/21 09:50:28;;;;;;;15.10;6.57;;;;;;;;;;6332764;22;20080;-60
2022/10/21 09:53:18;;;;;;;13.30;6.70;;;;;;;;;;6331521;22;20063;-59
2022/10/21 09:55:57;;;;;;;15.88;7.22;;;;;;;;;;6292269;22;20161;-59
2022/10/21 09:58:37;;;;;;;19.05;7.45;;;;;;;;;;6330569;22;20029;-59
2022/10/21 10:01:21;;;;;;;17.13;7.32;;;;;;;;;;6331257;22;20023;-59
2022/10/21 10:03:59;;;;;;;15.15;8.20;;;;;;;;;;6330902;22;20023;-60
2022/10/21 10:06:36;;;;;;;16.17;7.88;;;;;;;;;;6331857;22;20022;-60
2022/10/21 10:09:19;;;;;;;18.55;8.93;;;;;;;;;;6331460;22;20026;-60
2022/10/21 10:11:57;;;;;;;20.52;9.60;;;;;;;;;;6331889;22;20077;-59
2022/10/21 10:14:35;;;;;;;17.67;8.68;;;;;;;;;;6331587;22;20048;-60
2022/10/21 10:17:35;;;;;;;20.15;8.55;;;;;;;;;;6302682;22;20472;-59
2022/10/21 10:20:17;;;;;;;17.95;10.15;;;;;;;;;;6331241;22;20023;-60
2022/10/21 10:22:57;;;;;;;21.98;9.65;;;;;;;;;;6331068;22;20043;-59
2022/10/21 10:25:32;;;;;;;19.65;9.27;;;;;;;;;;6330833;22;20382;-59
2022/10/21 10:28:09;;;;;;;18.67;9.60;;;;;;;;;;6331509;22;20489;-60
2022/10/21 10:30:39;;;;;;;21.63;11.23;;;;;;;;;;6330586;22;20085;-60
2022/10/21 10:33:24;;;;;;;25.23;9.38;;;;;;;;;;6331100;22;20019;-60
2022/10/21 10:35:51;;;;;;;;;;;;;;;;;;6331910;22;20329;-59
2022/10/21 10:38:28;;;;;;;18.70;9.68;;;;;;;;;;6331379;22;20001;-60
2022/10/21 10:41:02;;;;;;;23.65;10.52;;;;;;;;;;6331040;22;20023;-59
2022/10/21 10:43:42;;;;;;;20.92;9.98;;;;;;;;;;6331049;22;20460;-60
2022/10/21 10:46:15;;;;;;;21.25;10.75;;;;;;;;;;6332032;22;20094;-60
2022/10/21 10:48:49;;;;;;;25.50;11.75;;;;;;;;;;6333389;22;20123;-49
2022/10/21 10:51:26;;;;;;;21.65;10.93;;;;;;;;;;6334114;22;20023;-51
2022/10/21 10:54:01;;;;;;;22.75;11.10;;;;;;;;;;6331389;22;20133;-48
2022/10/21 10:56:37;;;;;;;20.92;11.25;;;;;;;;;;6333472;22;20056;-47
2022/10/21 10:59:15;;;;;;;22.35;12.50;;;;;;;;;;6333471;22;20035;-47
2022/10/21 11:02:11;;;;;;;19.08;11.38;;;;;;;;;;6333503;22;20069;-48
2022/10/21 11:04:48;;;;;;;19.42;10.70;;;;;;;;;;6333112;22;20586;-61
2022/10/21 11:07:40;;;;;;;20.33;11.80;;;;;;;;;;6333686;22;20105;-60
2022/10/21 11:10:16;;;;;;;22.45;12.52;;;;;;;;;;6334299;22;20077;-59
2022/10/21 11:12:50;;;;;;;26.70;12.48;;;;;;;;;;6333006;22;20552;-59
2022/10/21 11:15:17;;;;;;;21.33;12.18;;;;;;;;;;6331684;22;20023;-59
2022/10/21 11:17:59;;;;;;;24.38;13.48;;;;;;;;;;6333092;22;20094;-59
2022/10/21 11:21:02;;;;;;;22.95;12.13;;;;;;;;;;6301981;22;20016;-60
2022/10/21 11:23:46;;;;;;;20.92;12.45;;;;;;;;;;6300833;22;20023;-61
2022/10/21 11:26:20;;;;;;;20.83;12.75;;;;;;;;;;6302982;22;20025;-46
2022/10/21 11:29:02;;;;;;;22.63;13.40;;;;;;;;;;6302619;22;20034;-47
2022/10/21 11:31:45;;;;;;;23.10;12.40;;;;;;;;;;6302681;22;20053;-47
2022/10/21 11:34:46;;;;;;;23.38;12.52;;;;;;;;;;6301116;22;20027;-49
2022/10/21 11:37:13;;;;;;;24.83;13.73;;;;;;;;;;6302812;22;20533;-47
2022/10/21 11:39:56;;;;;;;23.42;14.00;;;;;;;;;;6302366;22;20090;-48
2022/10/21 11:42:33;;;;;;;19.95;12.70;;;;;;;;;;6301803;22;20098;-60
2022/10/21 11:45:26;;;;;;;22.25;13.25;;;;;;;;;;6301194;22;20026;-60
2022/10/21 11:47:56;;;;;;;21.95;12.82;;;;;;;;;;6301789;22;20020;-59
2022/10/21 11:50:43;;;;;;;23.73;12.98;;;;;;;;;;6301794;22;20126;-59
2022/10/21 11:53:26;;;;;;;23.98;13.95;;;;;;;;;;6302364;22;20019;-59
2022/10/21 11:56:18;;;;;;;30.10;14.80;;;;;;;;;;6300536;22;20023;-59
2022/10/21 11:58:53;;;;;;;25.13;14.57;;;;;;;;;;6301810;22;20119;-59
2022/10/21 12:01:29;;;;;;;24.50;13.65;;;;;;;;;;6302125;22;20094;-49
2022/10/21 12:04:06;;;;;;;24.08;14.38;;;;;;;;;;6302460;22;20464;-60
2022/10/21 12:06:39;;;;;;;27.33;14.23;;;;;;;;;;6300968;22;20034;-60
2022/10/21 12:09:17;;;;;;;27.42;14.32;;;;;;;;;;6275498;22;20026;-61
2022/10/21 12:11:49;;;;;;;24.70;13.52;;;;;;;;;;6301117;22;20364;-61
2022/10/21 12:14:35;;;;;;;25.55;13.15;;;;;;;;;;6300892;22;20027;-60
2022/10/21 12:17:06;;;;;;;22.20;13.18;;;;;;;;;;6302541;22;20106;-60
2022/10/21 12:19:47;;;;;;;23.93;13.53;;;;;;;;;;6319629;22;20023;-60
2022/10/21 12:22:21;;;;;;;26.38;12.52;;;;;;;;;;6332158;22;20347;-60
2022/10/21 12:25:11;;;;;;;19.67;13.43;;;;;;;;;;6333174;22;20072;-59
2022/10/21 12:27:49;;;;;;;17.65;11.75;;;;;;;;;;6331541;22;20023;-59
2022/10/21 12:30:29;;;;;;;19.73;11.70;;;;;;;;;;6332049;22;20037;-60
2022/10/21 12:33:02;;;;;;;21.77;13.32;;;;;;;;;;6332155;22;20050;-60
2022/10/21 12:35:52;;;;;;;22.90;12.88;;;;;;;;;;6332720;22;20027;-60
2022/10/21 12:38:21;;;;;;;22.90;12.77;;;;;;;;;;6332249;22;20026;-59
2022/10/21 12:41:13;;;;;;;22.70;13.30;;;;;;;;;;6332165;22;20018;-60
2022/10/21 12:43:41;;;;;;;17.92;12.32;;;;;;;;;;6331304;22;20486;-60
2022/10/21 12:46:22;;;;;;;18.90;11.57;;;;;;;;;;6332241;22;20566;-60
2022/10/21 12:48:51;;;;;;;22.73;13.80;;;;;;;;;;6331064;22;20058;-60
2022/10/21 12:51:29;;;;;;;19.88;12.60;;;;;;;;;;6332223;22;20495;-60
2022/10/21 12:54:03;;;;;;;25.85;13.52;;;;;;;;;;6331707;22;20408;-60
2022/10/21 12:56:48;;;;;;;19.65;12.43;;;;;;;;;;6331139;22;20015;-60
2022/10/21 12:59:34;;;;;;;22.60;13.07;;;;;;;;;;6332442;22;20470;-60
2022/10/21 13:02:04;;;;;;;23.50;12.70;;;;;;;;;;6331744;22;20025;-47
2022/10/21 13:04:38;;;;;;;19.20;11.50;;;;;;;;;;6332698;22;20300;-50
2022/10/21 13:07:14;;;;;;;19.23;12.30;;;;;;;;;;6330937;22;20468;-47
2022/10/21 13:09:50;;;;;;;20.45;12.48;;;;;;;;;;6332476;22;20015;-47
2022/10/21 13:12:23;;;;;;;20.10;12.32;;;;;;;;;;6332321;22;20098;-48
2022/10/21 13:14:59;;;;;;;17.70;11.68;;;;;;;;;;6331175;22;20494;-48
2022/10/21 13:17:29;;;;;;;;;;;;;;;;;;6333275;22;20051;-60
2022/10/21 13:20:12;;;;;;;16.80;10.77;;;;;;;;;;6330676;22;19954;-59
2022/10/21 13:22:40;;;;;;;20.10;12.02;;;;;;;;;;6330430;22;20053;-59
2022/10/21 13:25:27;;;;;;;19.13;11.10;;;;;;;;;;6332503;22;20029;-59
2022/10/21 13:28:04;;;;;;;16.92;11.27;;;;;;;;;;6331775;22;20041;-59
2022/10/21 13:30:58;;;;;;;17.13;10.63;;;;;;;;;;6332356;22;20098;-59
2022/10/21 13:33:36;;;;;;;22.83;11.68;;;;;;;;;;6326700;22;20073;-59
2022/10/21 13:36:11;;;;;;;19.38;10.68;;;;;;;;;;6329093;22;20023;-60
2022/10/21 13:38:50;;;;;;;17.20;10.98;;;;;;;;;;6328858;22;20467;-60
2022/10/21 13:41:30;;;;;;;18.63;11.77;;;;;;;;;;6329544;22;20105;-50
2022/10/21 13:43:58;;;;;;;18.83;11.40;;;;;;;;;;6326270;22;20015;-49
2022/10/21 13:46:39;;;;;;;19.15;11.80;;;;;;;;;;6328547;22;20491;-52
2022/10/21 13:49:30;;;;;;;20.90;11.75;;;;;;;;;;6301670;22;20054;-51
2022/10/21 13:52:04;;;;;;;18.55;11.63;;;;;;;;;;6300286;22;20022;-51
2022/10/21 13:54:35;;;;;;;17.70;10.65;;;;;;;;;;6329179;22;20022;-48
2022/10/21 13:57:18;;;;;;;17.48;10.90;;;;;;;;;;6328756;22;20015;-48
2022/10/21 13:59:58;;;;;;;16.02;10.70;;;;;;;;;;6328463;22;20106;-50
2022/10/21 14:02:32;;;;;;;15.43;10.25;;;;;;;;;;6329362;22;20026;-49
2022/10/21 14:04:59;;;;;;;19.40;11.52;;;;;;;;;;6328460;22;20463;-48
2022/10/21 14:07:27;;;;;;;15.82;10.13;;;;;;;;;;6327420;22;20027;-51
2022/10/21 14:10:06;;;;;;;19.17;12.05;;;;;;;;;;6328935;22;20022;-49
2022/10/21 14:12:42;;;;;;;19.13;11.43;;;;;;;;;;6328050;22;20110;-47
2022/10/21 14:15:16;;;;;;;16.17;10.32;;;;;;;;;;6327694;22;20048;-59
2022/10/21 14:17:55;;;;;;;16.42;10.07;;;;;;;;;;6327394;22;20094;-48
2022/10/21 14:20:32;;;;;;;14.20;10.25;;;;;;;;;;6327736;22;20022;-48
2022/10/21 14:23:14;;;;;;;18.88;11.65;;;;;;;;;;6329093;22;20295;-50
2022/10/21 14:25:41;;;;;;;17.98;11.07;;;;;;;;;;6327797;22;20050;-51
2022/10/21 14:28:15;;;;;;;19.45;11.32;;;;;;;;;;6327354;22;20036;-51
2022/10/21 14:30:43;;;;;;;22.92;11.60;;;;;;;;;;6328735;22;20102;-49
2022/10/21 14:33:20;;;;;;;14.35;10.40;;;;;;;;;;6326566;22;20045;-59
2022/10/21 14:36:03;;;;;;;18.42;11.43;;;;;;;;;;6327797;22;20033;-60
2022/10/21 14:38:39;;;;;;;15.27;10.32;;;;;;;;;;6327428;22;20018;-61
2022/10/21 14:41:08;;;;;;;14.80;10.02;;;;;;;;;;6328337;22;20023;-60
2022/10/21 14:43:39;;;;;;;15.55;10.13;;;;;;;;;;6327557;22;20046;-60
2022/10/21 14:46:13;;;;;;;14.57;10.00;;;;;;;;;;6328049;22;20026;-60
2022/10/21 14:48:48;;;;;;;16.55;10.25;;;;;;;;;;6327239;22;20023;-60
2022/10/21 14:51:22;;;;;;;16.48;10.27;;;;;;;;;;6326787;22;20026;-60
2022/10/21 14:53:50;;;;;;;16.17;10.85;;;;;;;;;;6328735;22;20048;-49
2022/10/21 14:56:35;;;;;;;20.55;10.02;;;;;;;;;;6327867;22;20101;-60
2022/10/21 14:59:02;;;;;;;;;;;;;;;;;;6327919;22;20069;-60
2022/10/21 15:01:41;;;;;;;19.30;10.50;;;;;;;;;;6326210;22;19926;-61
2022/10/21 15:04:43;;;;;;;17.20;11.63;;;;;;;;;;6328125;22;20029;-60
2022/10/21 15:07:23;;;;;;;13.07;10.02;;;;;;;;;;6263511;22;20030;-60
2022/10/21 15:10:07;;;;;;;15.02;9.80;;;;;;;;;;6320647;22;20094;-60
2022/10/21 15:12:45;;;;;;;14.82;9.10;;;;;;;;;;6327536;22;20065;-59
2022/10/21 15:15:34;;;;;;;16.88;9.55;;;;;;;;;;6328142;22;20478;-60
2022/10/21 15:18:18;;;;;;;11.82;8.40;;;;;;;;;;6326219;22;20093;-60
2022/10/21 15:20:53;;;;;;;13.55;9.20;;;;;;;;;;6326794;22;20130;-61
2022/10/21 15:23:35;;;;;;;16.25;10.73;;;;;;;;;;6328099;22;20022;-61